createdAt,value
2018-07-17T00:01:28.643Z,18.40
2018-07-17T00:03:57.218Z,18.30
2018-07-17T00:06:25.727Z,18.40
2018-07-17T00:08:54.315Z,18.40
2018-07-17T00:11:22.929Z,18.40
2018-07-17T00:13:51.458Z,18.40
2018-07-17T00:16:19.980Z,18.40
2018-07-17T00:18:48.529Z,18.30
2018-07-17T00:21:17.046Z,18.30
2018-07-17T00:23:45.573Z,18.20
2018-07-17T00:26:14.125Z,18.20
2018-07-17T00:28:42.609Z,18.20
2018-07-17T00:31:11.145Z,18.10
2018-07-17T00:33:39.705Z,18.10
2018-07-17T00:36:08.254Z,18.10
2018-07-17T00:41:04.954Z,18.00
2018-07-17T00:43:33.454Z,18.00
2018-07-17T00:46:02.031Z,18.00
2018-07-17T00:48:30.517Z,18.00
2018-07-17T00:50:59.049Z,18.00
2018-07-17T00:53:27.561Z,18.10
2018-07-17T00:55:56.094Z,18.00
2018-07-17T00:58:24.633Z,18.00
2018-07-17T01:00:52.337Z,18.00
2018-07-17T01:03:25.990Z,18.00
2018-07-17T01:05:59.881Z,18.00
2018-07-17T01:08:33.678Z,17.90
2018-07-17T01:11:07.476Z,17.80
2018-07-17T01:13:41.326Z,17.80
2018-07-17T01:16:09.925Z,17.80
2018-07-17T01:18:38.470Z,17.70
2018-07-17T01:21:07.244Z,17.70
2018-07-17T01:23:35.739Z,17.60
2018-07-17T01:26:22.795Z,17.60
2018-07-17T01:28:51.352Z,17.60
2018-07-17T01:31:19.846Z,17.50
2018-07-17T01:33:48.328Z,17.50
2018-07-17T01:36:16.898Z,17.40
2018-07-17T01:38:45.389Z,17.30
2018-07-17T01:41:14.105Z,17.30
2018-07-17T01:43:42.654Z,17.20
2018-07-17T01:46:11.153Z,17.20
2018-07-17T01:48:39.668Z,17.20
2018-07-17T01:51:08.201Z,17.20
2018-07-17T01:53:36.681Z,17.20
2018-07-17T01:56:05.581Z,17.10
2018-07-17T01:58:34.065Z,17.10
2018-07-17T02:01:02.580Z,17.00
2018-07-17T02:03:31.110Z,17.00
2018-07-17T02:05:59.641Z,17.00
2018-07-17T02:08:28.149Z,17.10
2018-07-17T02:10:56.676Z,17.10
2018-07-17T02:13:25.197Z,17.10
2018-07-17T02:15:53.689Z,17.00
2018-07-17T02:18:22.224Z,17.00
2018-07-17T02:20:50.698Z,17.00
2018-07-17T02:23:19.268Z,16.90
2018-07-17T02:25:47.753Z,16.90
2018-07-17T02:28:16.245Z,16.90
2018-07-17T02:30:44.757Z,16.80
2018-07-17T02:33:13.251Z,16.80
2018-07-17T02:35:41.744Z,16.80
2018-07-17T02:38:10.252Z,16.90
2018-07-17T02:43:06.996Z,16.80
2018-07-17T02:45:35.500Z,16.80
2018-07-17T02:48:04.029Z,16.80
2018-07-17T02:50:32.603Z,16.80
2018-07-17T02:53:01.121Z,16.80
2018-07-17T02:55:29.606Z,16.90
2018-07-17T02:57:58.129Z,16.90
2018-07-17T03:00:26.649Z,17.00
2018-07-17T03:02:55.209Z,17.00
2018-07-17T03:05:23.693Z,17.00
2018-07-17T03:07:52.211Z,16.80
2018-07-17T03:10:20.681Z,16.80
2018-07-17T03:12:49.211Z,16.60
2018-07-17T03:15:17.793Z,16.50
2018-07-17T03:17:46.275Z,16.50
2018-07-17T03:20:14.778Z,16.50
2018-07-17T03:22:43.245Z,16.50
2018-07-17T03:25:11.780Z,16.40
2018-07-17T03:27:40.375Z,16.50
2018-07-17T03:30:08.909Z,16.50
2018-07-17T03:32:37.545Z,16.50
2018-07-17T03:35:06.024Z,16.50
2018-07-17T03:37:34.589Z,16.50
2018-07-17T03:40:03.162Z,16.50
2018-07-17T03:42:31.653Z,16.50
2018-07-17T03:45:00.153Z,16.60
2018-07-17T03:47:28.637Z,16.70
2018-07-17T03:49:57.189Z,16.70
2018-07-17T03:52:25.680Z,16.70
2018-07-17T03:54:54.190Z,16.70
2018-07-17T03:57:22.675Z,16.70
2018-07-17T03:59:51.182Z,16.70
2018-07-17T04:02:19.707Z,16.90
2018-07-17T04:04:48.208Z,16.90
2018-07-17T04:07:16.699Z,17.10
2018-07-17T04:09:45.257Z,17.30
2018-07-17T04:12:13.717Z,17.40
2018-07-17T04:14:42.237Z,17.50
2018-07-17T04:17:10.790Z,17.60
2018-07-17T04:19:39.261Z,17.70
2018-07-17T04:22:07.778Z,17.80
2018-07-17T04:24:36.273Z,17.90
2018-07-17T04:27:04.862Z,17.90
2018-07-17T04:29:33.376Z,18.00
2018-07-17T04:32:01.937Z,18.00
2018-07-17T04:34:30.410Z,18.00
2018-07-17T04:36:58.914Z,18.10
2018-07-17T04:39:27.408Z,18.10
2018-07-17T04:41:56.017Z,18.10
2018-07-17T04:44:24.645Z,18.20
2018-07-17T04:46:53.209Z,18.30
2018-07-17T04:49:21.779Z,18.50
2018-07-17T04:51:50.345Z,18.50
2018-07-17T04:54:18.869Z,18.60
2018-07-17T04:56:47.367Z,18.70
2018-07-17T04:59:15.870Z,18.70
2018-07-17T05:01:44.493Z,18.80
2018-07-17T05:04:12.896Z,18.90
2018-07-17T05:06:41.386Z,19.00
2018-07-17T05:09:10.618Z,19.20
2018-07-17T05:11:39.150Z,19.30
2018-07-17T05:14:07.849Z,19.40
2018-07-17T05:16:36.525Z,19.50
2018-07-17T05:19:05.187Z,19.60
2018-07-17T05:21:33.679Z,19.80
2018-07-17T05:24:02.202Z,20.00
2018-07-17T05:26:30.746Z,20.10
2018-07-17T05:28:59.274Z,20.20
2018-07-17T05:31:27.797Z,20.40
2018-07-17T05:33:56.292Z,20.50
2018-07-17T05:36:24.843Z,20.70
2018-07-17T05:38:53.409Z,20.90
2018-07-17T05:41:21.870Z,21.00
2018-07-17T05:43:50.401Z,21.10
2018-07-17T05:46:18.918Z,21.10
2018-07-17T05:48:47.488Z,21.40
2018-07-17T05:51:16.109Z,22.40
2018-07-17T05:53:45.126Z,23.50
2018-07-17T05:56:13.794Z,25.10
2018-07-17T05:58:42.311Z,26.10
2018-07-17T06:01:10.864Z,27.00
2018-07-17T06:03:39.391Z,27.70
2018-07-17T06:08:36.162Z,29.10
2018-07-17T06:11:04.785Z,29.60
2018-07-17T06:13:33.391Z,29.80
2018-07-17T06:16:01.902Z,30.10
2018-07-17T06:18:30.397Z,30.80
2018-07-17T06:20:58.982Z,30.80
2018-07-17T06:23:27.476Z,31.00
2018-07-17T06:25:56.037Z,30.90
2018-07-17T06:28:26.613Z,30.90
2018-07-17T06:33:23.453Z,32.30
2018-07-17T06:35:52.025Z,32.50
2018-07-17T06:38:20.569Z,32.60
2018-07-17T06:40:49.120Z,33.30
2018-07-17T06:43:17.619Z,34.10
2018-07-17T06:45:46.212Z,35.00
2018-07-17T06:48:14.741Z,35.90
2018-07-17T06:50:43.283Z,36.00
2018-07-17T06:53:11.786Z,34.50
2018-07-17T06:55:40.277Z,33.10
2018-07-17T06:58:08.836Z,33.60
2018-07-17T07:00:37.349Z,34.70
2018-07-17T07:03:05.961Z,34.90
2018-07-17T07:05:34.528Z,34.90
2018-07-17T07:10:31.238Z,33.10
2018-07-17T07:12:59.768Z,32.60
2018-07-17T07:15:28.285Z,33.00
2018-07-17T07:17:56.852Z,32.70
2018-07-17T07:20:25.329Z,32.00
2018-07-17T07:22:53.897Z,33.00
2018-07-17T07:25:22.409Z,33.20
2018-07-17T07:27:50.962Z,34.60
2018-07-17T07:30:19.480Z,35.20
2018-07-17T07:32:49.473Z,36.40
2018-07-17T07:35:18.123Z,36.50
2018-07-17T07:37:46.651Z,35.60
2018-07-17T07:40:15.308Z,34.20
2018-07-17T07:42:43.946Z,32.70
2018-07-17T07:45:12.368Z,31.80
2018-07-17T07:47:40.904Z,30.90
2018-07-17T07:50:09.429Z,30.50
2018-07-17T07:52:37.910Z,30.40
2018-07-17T07:55:06.766Z,29.90
2018-07-17T07:57:35.266Z,29.70
2018-07-17T08:00:03.915Z,29.20
2018-07-17T08:02:32.433Z,29.10
2018-07-17T08:05:00.978Z,29.00
2018-07-17T08:07:29.437Z,28.40
2018-07-17T08:09:57.958Z,28.60
2018-07-17T08:12:26.424Z,29.00
2018-07-17T08:14:55.005Z,29.40
2018-07-17T08:17:23.541Z,31.50
2018-07-17T08:19:52.037Z,33.50
2018-07-17T08:22:20.525Z,34.30
2018-07-17T08:24:49.026Z,35.50
2018-07-17T08:27:17.548Z,36.80
2018-07-17T08:29:46.089Z,37.30
2018-07-17T08:32:14.608Z,36.00
2018-07-17T08:34:43.167Z,34.20
2018-07-17T08:37:11.651Z,33.60
2018-07-17T08:39:40.148Z,33.10
2018-07-17T08:42:08.713Z,33.50
2018-07-17T08:44:37.173Z,33.80
2018-07-17T08:47:05.753Z,34.00
2018-07-17T08:49:34.277Z,33.50
2018-07-17T08:54:31.004Z,35.80
2018-07-17T08:56:59.573Z,36.10
2018-07-17T08:59:28.173Z,36.60
2018-07-17T09:01:56.740Z,36.10
2018-07-17T09:04:25.248Z,36.90
2018-07-17T09:06:53.753Z,38.20
2018-07-17T09:09:22.224Z,37.90
2018-07-17T09:11:50.754Z,37.70
2018-07-17T09:14:19.266Z,37.60
2018-07-17T09:16:47.745Z,36.70
2018-07-17T09:19:16.225Z,35.50
2018-07-17T09:21:44.737Z,35.70
2018-07-17T09:24:13.211Z,36.50
2018-07-17T09:26:41.729Z,35.60
2018-07-17T09:29:10.506Z,36.30
2018-07-17T09:31:39.027Z,36.60
2018-07-17T09:34:07.506Z,37.50
2018-07-17T09:36:36.124Z,36.60
2018-07-17T09:39:06.081Z,36.20
2018-07-17T09:41:34.609Z,35.30
2018-07-17T09:44:03.205Z,35.50
2018-07-17T09:46:31.664Z,35.40
2018-07-17T09:49:00.172Z,35.20
2018-07-17T09:51:28.714Z,35.70
2018-07-17T09:53:57.225Z,35.50
2018-07-17T09:56:25.865Z,34.60
2018-07-17T09:58:54.376Z,34.80
2018-07-17T10:01:28.320Z,35.50
2018-07-17T10:03:56.845Z,36.00
2018-07-17T10:06:25.420Z,35.60
2018-07-17T10:08:53.953Z,34.60
2018-07-17T10:11:22.510Z,33.20
2018-07-17T10:13:51.068Z,31.60
2018-07-17T10:16:20.025Z,30.80
2018-07-17T10:18:48.526Z,30.20
2018-07-17T10:21:17.136Z,29.60
2018-07-17T10:23:45.717Z,29.10
2018-07-17T10:26:14.295Z,28.90
2018-07-17T10:28:42.764Z,29.00
2018-07-17T10:31:11.293Z,29.10
2018-07-17T10:33:39.818Z,29.20
2018-07-17T10:36:08.396Z,29.50
2018-07-17T10:38:37.024Z,31.00
2018-07-17T10:41:05.554Z,32.30
2018-07-17T10:43:34.185Z,32.60
2018-07-17T10:46:02.738Z,33.20
2018-07-17T10:48:31.221Z,33.70
2018-07-17T10:50:59.746Z,34.50
2018-07-17T10:53:28.665Z,34.70
2018-07-17T10:55:57.261Z,34.10
2018-07-17T10:58:25.757Z,34.50
2018-07-17T11:00:54.371Z,34.00
2018-07-17T11:03:22.862Z,33.60
2018-07-17T11:05:51.394Z,33.00
2018-07-17T11:08:19.992Z,32.30
2018-07-17T11:10:48.494Z,32.40
2018-07-17T11:13:16.985Z,32.40
2018-07-17T11:18:13.770Z,32.70
2018-07-17T11:20:42.307Z,32.70
2018-07-17T11:23:10.856Z,33.00
2018-07-17T11:25:39.415Z,32.90
2018-07-17T11:28:07.981Z,32.40
2018-07-17T11:30:36.529Z,32.10
2018-07-17T11:33:05.547Z,31.80
2018-07-17T11:35:34.056Z,32.00
2018-07-17T11:38:02.561Z,32.20
2018-07-17T11:40:31.091Z,32.10
2018-07-17T11:42:59.626Z,32.10
2018-07-17T11:45:28.125Z,32.10
2018-07-17T11:47:56.672Z,32.00
2018-07-17T11:50:25.164Z,31.80
2018-07-17T11:52:53.717Z,31.60
2018-07-17T11:55:22.242Z,31.50
2018-07-17T11:57:50.876Z,31.50
2018-07-17T12:00:19.429Z,31.20
2018-07-17T12:02:48.083Z,31.40
2018-07-17T12:05:16.656Z,31.50
2018-07-17T12:07:45.205Z,31.20
2018-07-17T12:10:13.686Z,31.20
2018-07-17T12:12:42.277Z,31.20
2018-07-17T12:15:10.888Z,31.50
2018-07-17T12:20:07.744Z,31.20
2018-07-17T12:25:04.428Z,31.30
2018-07-17T12:27:32.925Z,31.40
2018-07-17T12:30:01.462Z,31.40
2018-07-17T12:32:30.101Z,30.90
2018-07-17T12:34:58.735Z,30.50
2018-07-17T12:37:27.222Z,30.60
2018-07-17T12:39:55.789Z,30.90
2018-07-17T12:42:24.350Z,31.70
2018-07-17T12:44:52.903Z,32.50
2018-07-17T12:47:21.498Z,32.70
2018-07-17T12:49:50.091Z,32.40
2018-07-17T12:52:18.587Z,31.70
2018-07-17T12:54:47.093Z,31.40
2018-07-17T12:57:15.635Z,31.30
2018-07-17T12:59:44.184Z,31.10
2018-07-17T13:02:12.712Z,31.10
2018-07-17T13:04:41.205Z,31.10
2018-07-17T13:07:09.738Z,30.70
2018-07-17T13:09:38.289Z,30.80
2018-07-17T13:12:07.216Z,30.90
2018-07-17T13:14:35.768Z,30.60
2018-07-17T13:17:04.405Z,30.90
2018-07-17T13:19:32.949Z,30.90
2018-07-17T13:22:01.462Z,30.90
2018-07-17T13:24:29.997Z,30.90
2018-07-17T13:26:58.526Z,30.80
2018-07-17T13:29:27.050Z,30.70
2018-07-17T13:31:55.557Z,30.30
2018-07-17T13:36:52.432Z,30.80
2018-07-17T13:39:20.984Z,30.80
2018-07-17T13:41:49.521Z,30.70
2018-07-17T13:44:18.013Z,30.70
2018-07-17T13:46:46.605Z,30.60
2018-07-17T13:49:15.129Z,30.50
2018-07-17T13:51:43.702Z,30.50
2018-07-17T13:54:12.215Z,30.30
2018-07-17T13:56:40.761Z,30.20
2018-07-17T13:59:09.253Z,30.00
2018-07-17T14:01:37.796Z,30.10
2018-07-17T14:04:06.317Z,30.40
2018-07-17T14:06:34.860Z,30.50
2018-07-17T14:09:06.717Z,30.80
2018-07-17T14:11:35.345Z,30.90
2018-07-17T14:14:04.168Z,30.90
2018-07-17T14:16:32.678Z,30.90
2018-07-17T14:19:01.219Z,30.60
2018-07-17T14:21:29.729Z,30.70
2018-07-17T14:23:58.273Z,30.70
2018-07-17T14:26:26.777Z,30.60
2018-07-17T14:28:55.310Z,30.50
2018-07-17T14:31:23.813Z,30.60
2018-07-17T14:33:52.360Z,30.90
2018-07-17T14:36:20.949Z,30.80
2018-07-17T14:38:49.557Z,30.90
2018-07-17T14:41:18.085Z,30.80
2018-07-17T14:43:46.650Z,30.40
2018-07-17T14:46:15.206Z,30.30
2018-07-17T14:48:43.891Z,30.30
2018-07-17T14:51:13.918Z,30.30
2018-07-17T14:53:42.469Z,30.40
2018-07-17T14:56:11.037Z,30.80
2018-07-17T14:58:39.572Z,31.30
2018-07-17T15:01:08.556Z,31.40
2018-07-17T15:03:37.165Z,31.40
2018-07-17T15:06:05.708Z,31.60
2018-07-17T15:08:34.328Z,31.90
2018-07-17T15:11:02.925Z,31.40
2018-07-17T15:13:31.531Z,31.30
2018-07-17T15:16:00.165Z,31.20
2018-07-17T15:18:28.640Z,30.80
2018-07-17T15:20:57.164Z,30.80
2018-07-17T15:23:25.638Z,30.80
2018-07-17T15:25:54.197Z,30.60
2018-07-17T15:28:22.753Z,30.50
2018-07-17T15:30:51.382Z,30.50
2018-07-17T15:33:19.958Z,30.70
2018-07-17T15:35:48.540Z,30.40
2018-07-17T15:38:17.242Z,30.00
2018-07-17T15:40:45.838Z,29.70
2018-07-17T15:43:14.389Z,29.40
2018-07-17T15:45:43.006Z,29.30
2018-07-17T15:48:11.556Z,29.40
2018-07-17T15:50:40.117Z,29.60
2018-07-17T15:53:08.743Z,30.20
2018-07-17T15:55:37.240Z,31.00
2018-07-17T15:58:05.897Z,31.60
2018-07-17T16:00:34.497Z,31.90
2018-07-17T16:03:04.393Z,32.00
2018-07-17T16:05:33.506Z,31.90
2018-07-17T16:08:02.467Z,31.70
2018-07-17T16:10:31.468Z,31.40
2018-07-17T16:13:00.356Z,31.20
2018-07-17T16:15:28.904Z,30.90
2018-07-17T16:17:57.439Z,30.50
2018-07-17T16:20:25.988Z,30.10
2018-07-17T16:22:54.568Z,29.80
2018-07-17T16:25:23.147Z,29.40
2018-07-17T16:27:51.749Z,29.20
2018-07-17T16:30:20.306Z,28.90
2018-07-17T16:32:48.854Z,28.70
2018-07-17T16:35:17.410Z,28.60
2018-07-17T16:37:45.995Z,28.50
2018-07-17T16:40:14.600Z,28.30
2018-07-17T16:42:43.272Z,28.10
2018-07-17T16:45:11.836Z,27.00
2018-07-17T16:47:40.450Z,26.20
2018-07-17T16:50:09.001Z,25.40
2018-07-17T16:52:38.044Z,24.80
2018-07-17T16:55:06.581Z,24.20
2018-07-17T16:57:35.107Z,23.70
2018-07-17T17:00:03.728Z,22.90
2018-07-17T17:02:32.256Z,21.70
2018-07-17T17:05:00.892Z,20.90
2018-07-17T17:07:29.453Z,20.30
2018-07-17T17:09:57.966Z,20.00
2018-07-17T17:12:26.472Z,19.90
2018-07-17T17:14:55.120Z,19.90
2018-07-17T17:17:23.735Z,19.70
2018-07-17T17:19:52.320Z,19.40
2018-07-17T17:22:20.813Z,19.30
2018-07-17T17:24:49.335Z,19.30
2018-07-17T17:27:17.886Z,19.40
2018-07-17T17:29:46.522Z,19.50
2018-07-17T17:32:15.096Z,19.60
2018-07-17T17:34:43.670Z,19.70
2018-07-17T17:37:12.265Z,19.70
2018-07-17T17:39:40.887Z,19.70
2018-07-17T17:42:09.568Z,19.70
2018-07-17T17:44:38.098Z,19.80
2018-07-17T17:47:06.668Z,19.80
2018-07-17T17:49:35.308Z,19.90
2018-07-17T17:52:03.851Z,20.00
2018-07-17T17:54:32.453Z,20.00
2018-07-17T17:57:01.018Z,20.00
2018-07-17T17:59:29.739Z,20.00
2018-07-17T18:01:58.361Z,20.00
2018-07-17T18:04:26.960Z,20.10
2018-07-17T18:06:55.541Z,20.20
2018-07-17T18:09:25.081Z,20.30
2018-07-17T18:11:53.702Z,20.40
2018-07-17T18:14:22.214Z,20.50
2018-07-17T18:16:51.122Z,20.40
2018-07-17T18:19:19.687Z,20.30
2018-07-17T18:21:48.326Z,20.30
2018-07-17T18:24:16.846Z,20.30
2018-07-17T18:26:45.717Z,20.30
2018-07-17T18:29:14.284Z,20.20
2018-07-17T18:31:43.045Z,20.20
2018-07-17T18:34:11.655Z,20.20
2018-07-17T18:36:40.144Z,20.30
2018-07-17T18:41:37.462Z,20.30
2018-07-17T18:44:05.976Z,20.30
2018-07-17T18:46:34.485Z,20.30
2018-07-17T18:49:02.992Z,20.30
2018-07-17T18:51:31.551Z,20.30
2018-07-17T18:56:28.358Z,20.10
2018-07-17T18:58:56.904Z,20.10
2018-07-17T19:01:25.456Z,20.00
2018-07-17T19:03:54.051Z,20.00
2018-07-17T19:06:22.622Z,20.00
2018-07-17T19:08:51.166Z,20.00
2018-07-17T19:11:19.767Z,20.00
2018-07-17T19:13:48.399Z,20.00
2018-07-17T19:16:16.984Z,20.00
2018-07-17T19:18:45.575Z,19.90
2018-07-17T19:21:14.097Z,19.90
2018-07-17T19:23:42.717Z,19.90
2018-07-17T19:26:11.253Z,19.90
2018-07-17T19:28:39.799Z,19.80
2018-07-17T19:31:08.323Z,19.70
2018-07-17T19:33:36.925Z,19.70
2018-07-17T19:36:05.770Z,19.60
2018-07-17T19:38:34.292Z,19.60
2018-07-17T19:41:03.002Z,19.50
2018-07-17T19:43:31.564Z,19.50
2018-07-17T19:46:00.073Z,19.40
2018-07-17T19:48:28.707Z,19.30
2018-07-17T19:50:57.290Z,19.10
2018-07-17T19:53:25.932Z,19.00
2018-07-17T19:55:54.547Z,18.90
2018-07-17T19:58:23.084Z,18.70
2018-07-17T20:00:51.677Z,18.60
2018-07-17T20:03:20.225Z,18.50
2018-07-17T20:05:49.040Z,18.40
2018-07-17T20:08:18.496Z,18.30
2018-07-17T20:10:47.010Z,18.30
2018-07-17T20:13:15.566Z,18.30
2018-07-17T20:15:44.186Z,18.20
2018-07-17T20:18:12.818Z,18.20
2018-07-17T20:20:41.345Z,18.10
2018-07-17T20:23:09.966Z,18.00
2018-07-17T20:25:38.484Z,18.00
2018-07-17T20:28:07.013Z,17.90
2018-07-17T20:30:35.541Z,17.80
2018-07-17T20:33:04.102Z,17.90
2018-07-17T20:35:32.712Z,17.80
2018-07-17T20:40:30.096Z,17.80
2018-07-17T20:42:58.674Z,17.80
2018-07-17T20:45:27.225Z,17.70
2018-07-17T20:47:55.749Z,17.60
2018-07-17T20:50:24.298Z,17.60
2018-07-17T20:52:53.680Z,17.60
2018-07-17T20:55:22.363Z,17.50
2018-07-17T20:57:50.918Z,17.50
2018-07-17T21:00:19.685Z,17.50
2018-07-17T21:02:49.119Z,17.40
2018-07-17T21:05:17.688Z,17.40
2018-07-17T21:07:46.448Z,17.40
2018-07-17T21:10:15.214Z,17.40
2018-07-17T21:15:12.205Z,17.30
2018-07-17T21:17:40.856Z,17.30
2018-07-17T21:20:09.041Z,17.30
2018-07-17T21:22:38.383Z,17.40
2018-07-17T21:25:07.035Z,17.40
2018-07-17T21:27:35.584Z,17.30
2018-07-17T21:30:04.463Z,17.30
2018-07-17T21:32:33.017Z,17.20
2018-07-17T21:35:01.973Z,17.20
2018-07-17T21:37:30.591Z,17.30
2018-07-17T21:39:59.177Z,17.20
2018-07-17T21:42:27.750Z,17.20
2018-07-17T21:44:57.204Z,17.10
2018-07-17T21:47:25.730Z,17.10
2018-07-17T21:49:54.316Z,17.00
2018-07-17T21:52:22.824Z,17.00
2018-07-17T21:54:51.394Z,17.00
2018-07-17T21:57:19.924Z,16.90
2018-07-17T21:59:48.452Z,16.90
2018-07-17T22:02:16.989Z,16.80
2018-07-17T22:04:45.553Z,16.90
2018-07-17T22:07:14.067Z,16.90
2018-07-17T22:09:42.605Z,16.90
2018-07-17T22:12:11.252Z,16.90
2018-07-17T22:14:39.950Z,16.90
2018-07-17T22:17:08.492Z,16.80
2018-07-17T22:19:37.017Z,16.80
2018-07-17T22:22:06.956Z,16.80
2018-07-17T22:24:35.501Z,16.80
2018-07-17T22:27:05.246Z,16.80
2018-07-17T22:29:33.817Z,16.70
2018-07-17T22:32:02.369Z,16.70
2018-07-17T22:34:31.045Z,16.70
2018-07-17T22:36:59.578Z,16.70
2018-07-17T22:39:28.481Z,16.70
2018-07-17T22:41:57.606Z,16.60
2018-07-17T22:44:26.115Z,16.60
2018-07-17T22:46:54.672Z,16.60
2018-07-17T22:49:23.512Z,16.60
2018-07-17T22:51:53.977Z,16.50
2018-07-17T22:54:22.529Z,16.50
2018-07-17T22:56:51.057Z,16.40
2018-07-17T22:59:19.944Z,16.40
2018-07-17T23:01:49.044Z,16.30
2018-07-17T23:04:17.838Z,16.20
2018-07-17T23:06:46.369Z,16.20
2018-07-17T23:09:14.891Z,16.10
2018-07-17T23:11:43.437Z,16.10
2018-07-17T23:14:11.973Z,16.00
2018-07-17T23:16:40.554Z,16.00
2018-07-17T23:19:09.045Z,15.90
2018-07-17T23:21:37.616Z,15.80
2018-07-17T23:24:06.165Z,15.70
2018-07-17T23:26:34.658Z,15.70
2018-07-17T23:29:03.239Z,15.60
2018-07-17T23:31:31.748Z,15.60
2018-07-17T23:34:00.357Z,15.50
2018-07-17T23:36:28.838Z,15.50
2018-07-17T23:38:57.369Z,15.50
2018-07-17T23:41:25.881Z,15.40
2018-07-17T23:43:54.508Z,15.40
2018-07-17T23:46:23.052Z,15.40
2018-07-17T23:48:51.794Z,15.40
2018-07-17T23:51:20.345Z,15.40
2018-07-17T23:53:48.891Z,15.30
2018-07-17T23:56:17.409Z,15.30
2018-07-17T23:58:45.905Z,15.30
